M I D A S
Marine Information and Data Acquisition System
Tripno 898 of the Zeeleeuw from 2005-05-11 08:13:35 to 2005-05-11 10:35:43
Back to CruiseResearch ActivitiesStationsMapUnderway DataData graphs

EquipmentUnitsComment
TimeDGPSUTC
LatitudeDGPSDM.mWGS84
LongitudeDGPSDM.mWGS84
HeadingGyrodeg 
SOGDGPSknotsSpeed over ground
COGDGPSdegCourse over ground
DepthEcho soundermeters200 kHz
Missing or incorrect values are displayed as -999
Navigation data collected by the RV Zeeleeuw from 2005-05-11 08:13:02 to 2005-05-11 10:35:43
                                                                                    Next 1000 lines
Time Latitude Longitude Heading SOG COG Depth
2005-05-11 08:13:16 51°13.594 2°56.102 128 0.2 231 5.6
2005-05-11 08:13:22 51°13.594 2°56.102 128.4 0.2 200 5.6
2005-05-11 08:13:27 51°13.594 2°56.102 129 0.2 179 5.6
2005-05-11 08:13:32 51°13.593 2°56.102 129.8 0.2 196 5.6
2005-05-11 08:16:52 51°13.594 2°56.102 129.5 0.2 278 5.6
2005-05-11 08:16:57 51°13.594 2°56.102 129.8 0.2 273 5.6
2005-05-11 08:17:02 51°13.594 2°56.101 130.5 0.2 282 5.6
2005-05-11 08:17:07 51°13.595 2°56.1 131.1 0.2 282 5.6
2005-05-11 08:17:12 51°13.595 2°56.1 131.7 0.2 282 5.5
2005-05-11 08:17:36 51°13.593 2°56.101 134.7 0.3 157 5.6
2005-05-11 08:17:42 51°13.593 2°56.102 135.5 0.3 155 5.7
2005-05-11 08:17:47 51°13.592 2°56.102 136.4 0.4 156 5.7
2005-05-11 08:17:52 51°13.591 2°56.103 137.1 0.5 150 5.7
2005-05-11 08:17:56 51°13.59 2°56.104 138.1 0.8 145 5.7
2005-05-11 08:18:02 51°13.589 2°56.106 138.6 1.1 142 5.7
2005-05-11 08:18:07 51°13.587 2°56.108 138.6 1.3 140 6
2005-05-11 08:18:12 51°13.585 2°56.11 138.1 1.3 140 6.4
2005-05-11 08:18:16 51°13.584 2°56.111 137.8 1.5 141 -999
2005-05-11 08:18:22 51°13.581 2°56.114 137.8 1.7 144 -999
2005-05-11 08:18:27 51°13.58 2°56.117 138.7 1.9 143 7.5
2005-05-11 08:18:32 51°13.577 2°56.12 139.5 2.4 143 7.7
2005-05-11 08:18:37 51°13.573 2°56.124 140.8 2.4 143 7.7
2005-05-11 08:18:42 51°13.57 2°56.127 142.1 3 146 7.7
2005-05-11 08:18:47 51°13.567 2°56.131 143.3 3 146 5.7
2005-05-11 08:18:52 51°13.563 2°56.135 144.5 3.1 148 7.6
2005-05-11 08:18:56 51°13.56 2°56.138 145.3 3.1 148 7.8
2005-05-11 08:19:02 51°13.554 2°56.143 145.7 3.4 147 7.8
2005-05-11 08:19:07 51°13.551 2°56.147 145.3 3.5 146 7.8
2005-05-11 08:19:12 51°13.546 2°56.153 144 3.7 144 7.9
2005-05-11 08:19:17 51°13.543 2°56.158 142.1 3.7 143 7.9
2005-05-11 08:19:22 51°13.539 2°56.164 139.8 3.8 137 7.9
2005-05-11 08:19:27 51°13.535 2°56.17 137.2 3.9 134 8
2005-05-11 08:19:32 51°13.532 2°56.176 133 3.6 127 8
2005-05-11 08:19:36 51°13.53 2°56.182 125.7 3.5 123 8.1
2005-05-11 08:19:42 51°13.527 2°56.189 121.2 3.2 119 7.9
2005-05-11 08:19:47 51°13.526 2°56.195 118.2 3.1 114 8
2005-05-11 08:19:51 51°13.525 2°56.2 115.4 3 112 8
2005-05-11 08:19:57 51°13.524 2°56.207 112.2 3 112 8
2005-05-11 08:20:02 51°13.523 2°56.214 108.4 3 101 8
2005-05-11 08:20:07 51°13.523 2°56.221 104 3.1 95 7.9
2005-05-11 08:20:12 51°13.524 2°56.229 99.3 3.3 93 8
2005-05-11 08:20:17 51°13.525 2°56.235 91.1 3.1 77 8
2005-05-11 08:20:22 51°13.526 2°56.241 84 3 74 8
2005-05-11 08:20:27 51°13.528 2°56.247 78.5 3 71 7.9
2005-05-11 08:20:32 51°13.53 2°56.254 73.9 2.9 67 -999
2005-05-11 08:20:36 51°13.531 2°56.257 70.5 2.6 61 7.2
2005-05-11 08:20:42 51°13.533 2°56.261 68.4 2 58 5.5
2005-05-11 08:20:47 51°13.534 2°56.262 65.3 1.3 48 7.4
2005-05-11 08:20:52 51°13.534 2°56.262 62.3 1.1 42 5.5
2005-05-11 08:20:57 51°13.534 2°56.26 60.5 0.4 281 7.5
2005-05-11 08:21:02 51°13.533 2°56.258 59 1 251 7.4
2005-05-11 08:21:07 51°13.533 2°56.256 58 1.1 249 7.3
2005-05-11 08:21:12 51°13.533 2°56.254 57.1 1.1 249 -999
2005-05-11 08:21:17 51°13.533 2°56.252 56.6 1.1 249 -999
2005-05-11 08:21:23 51°13.533 2°56.253 56 0.4 297 -999
2005-05-11 08:21:27 51°13.534 2°56.254 52.9 0.7 27 -999
2005-05-11 08:21:32 51°13.536 2°56.255 47.9 0.7 27 4.7
2005-05-11 08:21:36 51°13.537 2°56.256 43.7 1 22 6.5
2005-05-11 08:21:42 51°13.538 2°56.256 40.3 0.9 25 7.4
2005-05-11 08:21:47 51°13.539 2°56.256 38.2 0.7 9 4.7
2005-05-11 08:21:52 51°13.539 2°56.256 36.5 0.3 345 -999
2005-05-11 08:21:56 51°13.538 2°56.255 34.8 0.3 345 7.4
2005-05-11 08:22:02 51°13.537 2°56.252 33.3 1.1 224 7.4
2005-05-11 08:22:06 51°13.535 2°56.251 31.1 1.3 223 7.3
2005-05-11 08:22:12 51°13.533 2°56.248 29.6 1.5 216 7.3
2005-05-11 08:22:17 51°13.532 2°56.247 27.4 1.4 216 -999
2005-05-11 08:22:22 51°13.531 2°56.245 26.1 1.3 215 -999
2005-05-11 08:22:27 51°13.53 2°56.244 25.1 0.6 226 -999
2005-05-11 08:22:32 51°13.531 2°56.244 23.3 0.4 307 6.3
2005-05-11 08:22:36 51°13.532 2°56.244 20.8 0.9 358 4.8
2005-05-11 08:22:42 51°13.535 2°56.243 15.5 1.4 354 4.8
2005-05-11 08:22:47 51°13.536 2°56.243 9.5 1.4 354 4.9
2005-05-11 08:22:52 51°13.538 2°56.242 4.7 1.4 352 5.1
2005-05-11 08:22:56 51°13.54 2°56.241 1.3 1.3 344 7.2
2005-05-11 08:23:02 51°13.541 2°56.241 358.8 1.3 344 7.3
2005-05-11 08:23:07 51°13.541 2°56.24 356.6 1.3 344 7.3
2005-05-11 08:23:12 51°13.539 2°56.24 353.4 0.5 201 7.2
2005-05-11 08:23:16 51°13.538 2°56.24 350.1 0.9 183 5.5
2005-05-11 08:23:22 51°13.536 2°56.24 346.9 1.4 172 7.3
2005-05-11 08:23:27 51°13.534 2°56.241 344 1.4 170 7.2
2005-05-11 08:23:32 51°13.532 2°56.242 341.1 1.4 163 -999
2005-05-11 08:23:36 51°13.531 2°56.242 339.2 1.2 161 -999
2005-05-11 08:23:43 51°13.529 2°56.243 337.5 1.1 159 -999
2005-05-11 08:23:47 51°13.528 2°56.244 336.4 1.1 159 4.9
2005-05-11 08:23:52 51°13.527 2°56.245 335.6 0.7 156 4.9
2005-05-11 08:23:56 51°13.527 2°56.245 334.5 0.5 156 4.8
2005-05-11 08:24:02 51°13.527 2°56.245 333.5 0.2 149 -999
2005-05-11 08:24:12 51°13.527 2°56.245 331.2 0.3 336 7.9
2005-05-11 08:24:16 51°13.528 2°56.244 329.7 0.5 325 7.9
2005-05-11 08:24:22 51°13.53 2°56.242 328.4 1.2 325 7.9
2005-05-11 08:24:27 51°13.531 2°56.239 325.4 1.6 320 -999
2005-05-11 08:24:32 51°13.534 2°56.235 321.5 2 315 5.1
2005-05-11 08:24:37 51°13.535 2°56.232 315 2.1 311 4.9
2005-05-11 08:24:42 51°13.537 2°56.227 308.4 2.1 311 4.9
2005-05-11 08:24:47 51°13.538 2°56.222 302 2.3 299 -999
2005-05-11 08:24:52 51°13.54 2°56.217 297.4 2.5 294 7.9
2005-05-11 08:24:57 51°13.541 2°56.211 295.4 2.5 294 7.9
2005-05-11 08:25:01 51°13.542 2°56.206 293.9 2.8 288 7.9
2005-05-11 08:25:07 51°13.543 2°56.199 293.8 3 287 7.9
2005-05-11 08:25:12 51°13.544 2°56.192 295.4 3.2 289 7.9
2005-05-11 08:25:16 51°13.546 2°56.186 297.7 3.2 291 7.8
2005-05-11 08:25:22 51°13.548 2°56.179 300.8 3.4 295 7.8
2005-05-11 08:25:27 51°13.55 2°56.172 301.4 3.4 295 7.8
2005-05-11 08:25:32 51°13.553 2°56.164 301.4 3.7 295 7.8
2005-05-11 08:25:36 51°13.555 2°56.157 301.3 3.7 295 7.8
2005-05-11 08:25:42 51°13.558 2°56.148 301.2 3.7 295 7.8
2005-05-11 08:25:47 51°13.56 2°56.141 301.2 4 297 7.7
2005-05-11 08:25:52 51°13.563 2°56.132 301.6 4.2 299 7.6
2005-05-11 08:25:56 51°13.565 2°56.125 302.1 4.2 298 5.6
2005-05-11 08:26:02 51°13.569 2°56.115 302.5 4.4 299 7.7
2005-05-11 08:26:07 51°13.572 2°56.107 302.7 4.4 299 7.6
2005-05-11 08:26:12 51°13.575 2°56.097 303 4.5 299 7.7
2005-05-11 08:26:16 51°13.577 2°56.09 303.3 4.5 299 5.7
2005-05-11 08:26:22 51°13.581 2°56.079 303.7 4.6 300 7.7
2005-05-11 08:26:27 51°13.584 2°56.071 304.5 4.7 301 7.7
2005-05-11 08:26:31 51°13.587 2°56.064 305.2 4.7 302 7.8
2005-05-11 08:26:36 51°13.591 2°56.054 305.9 4.8 302 7.7
2005-05-11 08:26:42 51°13.595 2°56.045 306.2 4.8 303 5.7
2005-05-11 08:26:47 51°13.599 2°56.036 306.4 4.8 303 7.7
2005-05-11 08:26:52 51°13.603 2°56.027 306.5 5.2 304 7.8
2005-05-11 08:26:56 51°13.607 2°56.018 306.5 5.2 303 7.8
2005-05-11 08:27:02 51°13.612 2°56.007 306.5 5.4 303 7.8
2005-05-11 08:27:07 51°13.616 2°55.997 306.4 5.4 303 7.8
2005-05-11 08:27:12 51°13.62 2°55.986 306.4 5.7 303 7.9
2005-05-11 08:27:16 51°13.624 2°55.976 306.6 5.8 304 7.8
2005-05-11 08:27:22 51°13.63 2°55.963 307.1 5.9 304 7.9
2005-05-11 08:27:27 51°13.634 2°55.953 307.6 5.9 304 7.8
2005-05-11 08:27:32 51°13.639 2°55.941 308.1 6 305 7.9
2005-05-11 08:27:37 51°13.643 2°55.931 308.2 6 305 7.8
2005-05-11 08:27:42 51°13.648 2°55.92 308.1 6.1 304 7.9
2005-05-11 08:27:46 51°13.652 2°55.909 307.9 6.2 305 7.8
2005-05-11 08:27:52 51°13.658 2°55.896 307.9 6.3 305 7.7
2005-05-11 08:27:56 51°13.662 2°55.887 308.2 6.3 304 7.7
2005-05-11 08:28:02 51°13.669 2°55.873 308.5 6.3 305 7.7
2005-05-11 08:28:07 51°13.673 2°55.863 308.9 6.3 305 7.6
2005-05-11 08:28:12 51°13.678 2°55.851 309.2 6.4 306 7.6
2005-05-11 08:28:17 51°13.684 2°55.84 309.7 6.4 306 7.9
2005-05-11 08:28:22 51°13.69 2°55.828 309.9 6.4 307 8
2005-05-11 08:28:27 51°13.695 2°55.817 310.3 6.4 307 8.4
2005-05-11 08:28:31 51°13.699 2°55.807 310.5 6.5 307 9.2
2005-05-11 08:28:37 51°13.705 2°55.794 310.6 6.6 307 10
2005-05-11 08:28:42 51°13.712 2°55.781 310.6 6.6 306 10.4
2005-05-11 08:28:47 51°13.717 2°55.77 310.6 6.6 306 10.4
2005-05-11 08:28:52 51°13.723 2°55.758 311.8 6.7 310 10.7
2005-05-11 08:28:57 51°13.73 2°55.747 313.9 6.6 311 9.8
2005-05-11 08:29:02 51°13.735 2°55.738 316 6.5 314 9.4
2005-05-11 08:29:07 51°13.742 2°55.728 317.9 6.5 314 8.6
2005-05-11 08:29:12 51°13.749 2°55.719 320.8 6.3 319 8.3
2005-05-11 08:29:16 51°13.754 2°55.712 323.5 6.2 320 8.2
2005-05-11 08:29:22 51°13.762 2°55.703 325.8 6.1 323 8.2
2005-05-11 08:29:27 51°13.769 2°55.695 328 6.1 323 8.2
2005-05-11 08:29:31 51°13.775 2°55.689 329.9 6 326 8.3
2005-05-11 08:29:36 51°13.782 2°55.682 330.6 6 326 8.3
2005-05-11 08:29:40 51°13.787 2°55.676 331.1 5.9 327 8.2
2005-05-11 08:29:47 51°13.797 2°55.667 331.4 5.9 327 8.3
2005-05-11 08:29:52 51°13.804 2°55.66 331.8 5.9 327 8.4
2005-05-11 08:29:56 51°13.81 2°55.655 332.5 5.9 329 8.3
2005-05-11 08:30:02 51°13.818 2°55.647 333.3 5.9 330 8.5
2005-05-11 08:30:07 51°13.825 2°55.641 334.1 5.9 330 8.6
2005-05-11 08:30:12 51°13.832 2°55.635 334.9 6 332 8.6
2005-05-11 08:30:16 51°13.839 2°55.63 335.8 6 332 8.4
2005-05-11 08:30:22 51°13.848 2°55.623 336.6 6 334 8.5
2005-05-11 08:30:27 51°13.855 2°55.618 337.5 6.1 335 8.8
2005-05-11 08:30:31 51°13.862 2°55.613 338.6 6.2 336 8.4
2005-05-11 08:30:37 51°13.872 2°55.607 339.8 6.2 336 8.2
2005-05-11 08:30:42 51°13.881 2°55.602 341.1 6.2 336 8.3
2005-05-11 08:30:47 51°13.889 2°55.597 342.1 6.5 339 8.4
2005-05-11 08:30:52 51°13.898 2°55.591 343 6.6 339 8.4
2005-05-11 08:30:57 51°13.906 2°55.586 343.4 6.7 339 8.5
2005-05-11 08:31:02 51°13.915 2°55.58 343 6.7 337 8.6
2005-05-11 08:31:07 51°13.924 2°55.574 342.1 6.7 337 8.6
2005-05-11 08:31:12 51°13.934 2°55.568 341.4 6.8 336 8.6
2005-05-11 08:31:17 51°13.942 2°55.562 341.1 6.9 337 8.5
2005-05-11 08:31:22 51°13.951 2°55.557 341.6 7 338 8.4
2005-05-11 08:31:27 51°13.96 2°55.551 342.5 7 338 8.5
2005-05-11 08:31:32 51°13.97 2°55.545 343.5 7 339 8.4
2005-05-11 08:31:37 51°13.978 2°55.54 343.8 7 339 8.4
2005-05-11 08:31:41 51°13.986 2°55.535 343.6 7 339 8.4
2005-05-11 08:31:47 51°13.996 2°55.529 343.1 7 339 8.4
2005-05-11 08:31:52 51°14.007 2°55.523 342.7 7.1 339 8.4
2005-05-11 08:31:57 51°14.016 2°55.517 342.7 7.1 339 8.4
2005-05-11 08:32:02 51°14.025 2°55.512 342.7 7 339 8.4
2005-05-11 08:32:07 51°14.033 2°55.507 343 7 339 8.4
2005-05-11 08:32:12 51°14.044 2°55.501 343.3 7 340 8.2
2005-05-11 08:32:17 51°14.052 2°55.497 343.4 7 340 8.3
2005-05-11 08:32:22 51°14.061 2°55.491 343.3 7 340 8.2
2005-05-11 08:32:27 51°14.069 2°55.485 342.4 6.9 338 8.1
2005-05-11 08:32:31 51°14.077 2°55.48 341.3 6.8 337 8.1
2005-05-11 08:32:36 51°14.085 2°55.474 340.4 6.7 336 8.1
2005-05-11 08:32:42 51°14.095 2°55.467 339.6 6.6 336 8.1
2005-05-11 08:32:47 51°14.102 2°55.461 338.9 6.5 335 8.2
2005-05-11 08:32:52 51°14.111 2°55.454 338.2 6.5 334 8.3
2005-05-11 08:32:56 51°14.117 2°55.449 337.2 6.5 333 8.1
2005-05-11 08:33:02 51°14.126 2°55.441 336.3 6.5 332 9.4
2005-05-11 08:33:07 51°14.134 2°55.434 335.5 6.6 331 9.1
2005-05-11 08:33:11 51°14.141 2°55.428 334.7 6.8 331 9.3
2005-05-11 08:33:16 51°14.149 2°55.419 333.2 7 329 9.3
2005-05-11 08:33:22 51°14.16 2°55.408 331 7 329 9.4
2005-05-11 08:33:27 51°14.168 2°55.4 329.6 7.5 325 9.8
2005-05-11 08:33:32 51°14.177 2°55.389 328.8 7.6 325 9.4
2005-05-11 08:33:37 51°14.185 2°55.38 329 7.6 325 9.4
2005-05-11 08:33:42 51°14.194 2°55.369 329 7.6 325 9.1
2005-05-11 08:33:47 51°14.203 2°55.359 328.6 8.1 324 9.4
2005-05-11 08:33:52 51°14.213 2°55.346 328.1 8.3 323 9.7
2005-05-11 08:33:57 51°14.221 2°55.336 327.5 8.3 323 9.1
2005-05-11 08:34:02 51°14.232 2°55.323 326.9 8.4 322 9.2
2005-05-11 08:34:07 51°14.24 2°55.313 326.3 8.5 321 9.5
2005-05-11 08:34:12 51°14.249 2°55.3 325.1 8.6 320 9.1
2005-05-11 08:34:17 51°14.258 2°55.287 323.6 8.6 319 8.9
2005-05-11 08:34:22 51°14.266 2°55.274 321.7 8.6 318 8.8
2005-05-11 08:34:27 51°14.275 2°55.26 320.3 8.7 315 8.8
2005-05-11 08:34:31 51°14.281 2°55.249 318.2 8.7 313 8.8
2005-05-11 08:34:36 51°14.289 2°55.232 315.1 8.7 311 8.8
2005-05-11 08:34:42 51°14.299 2°55.213 313.1 9 309 8.7
2005-05-11 08:34:47 51°14.306 2°55.198 312.5 9.4 309 8.8
2005-05-11 08:34:51 51°14.314 2°55.182 312.2 9.7 309 8.7
2005-05-11 08:34:56 51°14.322 2°55.166 312.1 10 309 9.1
2005-05-11 08:35:02 51°14.333 2°55.143 312.1 10 309 9.1
2005-05-11 08:35:07 51°14.341 2°55.125 311.8 10.5 308 9
2005-05-11 08:35:12 51°14.351 2°55.103 310.8 10.8 306 9
2005-05-11 08:35:16 51°14.357 2°55.087 308.6 10.8 306 9
2005-05-11 08:35:22 51°14.366 2°55.061 306.3 10.8 306 8.7
2005-05-11 08:35:27 51°14.373 2°55.041 304.6 10.8 306 8.9
2005-05-11 08:35:32 51°14.381 2°55.016 303 11.4 297 8.9
2005-05-11 08:35:36 51°14.386 2°54.996 300.9 12 294 8.8
2005-05-11 08:35:42 51°14.393 2°54.968 299.3 12.4 293 8.9
2005-05-11 08:35:47 51°14.399 2°54.939 297.5 12.4 293 8.9
2005-05-11 08:35:52 51°14.403 2°54.911 293.1 12.4 293 8.8
2005-05-11 08:35:57 51°14.405 2°54.885 289.6 12.8 283 8.8
2005-05-11 08:36:02 51°14.407 2°54.854 285.2 12.8 283 8.8
2005-05-11 08:36:07 51°14.409 2°54.827 281.8 13.2 276 8.8
2005-05-11 08:36:12 51°14.412 2°54.795 280.3 13.4 276 8.9
2005-05-11 08:36:17 51°14.414 2°54.768 281.8 13.4 276 8.9
2005-05-11 08:36:22 51°14.418 2°54.736 282.9 13.6 279 8.9
2005-05-11 08:36:27 51°14.421 2°54.708 283.5 13.6 279 8.9
2005-05-11 08:36:32 51°14.425 2°54.679 285.6 13.8 282 8.9
2005-05-11 08:36:37 51°14.431 2°54.647 288.2 13.7 283 8.9
2005-05-11 08:36:42 51°14.436 2°54.618 290.5 13.7 287 8.8
2005-05-11 08:36:47 51°14.441 2°54.591 292.5 13.7 287 8.8
2005-05-11 08:36:52 51°14.447 2°54.562 292.2 13.9 285 9.1
2005-05-11 08:36:57 51°14.452 2°54.529 292.2 13.9 285 9.1
2005-05-11 08:37:02 51°14.459 2°54.5 292.8 14 288 9
2005-05-11 08:37:07 51°14.465 2°54.474 294.6 14 290 9.1
2005-05-11 08:37:12 51°14.472 2°54.445 296.9 14.1 290 8.9
2005-05-11 08:37:16 51°14.478 2°54.419 298.8 14.1 290 9.1
2005-05-11 08:37:22 51°14.486 2°54.384 298.6 14 290 9
2005-05-11 08:37:27 51°14.492 2°54.357 297.7 14 290 9
2005-05-11 08:37:32 51°14.499 2°54.328 297.7 14.1 291 9.1
2005-05-11 08:37:36 51°14.505 2°54.303 298.5 14.1 291 9.2
2005-05-11 08:37:42 51°14.516 2°54.269 301.4 14 296 9.1
2005-05-11 08:37:47 51°14.525 2°54.245 304.1 14 297 9.2
2005-05-11 08:37:52 51°14.535 2°54.216 306.7 14 297 9.2
2005-05-11 08:37:56 51°14.543 2°54.195 309.1 14 301 9.2
2005-05-11 08:38:00 51°14.552 2°54.174 311.2 13.9 303 9.4
2005-05-11 08:38:07 51°14.566 2°54.141 312.8 13.9 303 9.4
2005-05-11 08:38:12 51°14.578 2°54.114 314 13.9 305 9.5
2005-05-11 08:38:17 51°14.589 2°54.093 314.5 13.9 305 9.4
2005-05-11 08:38:22 51°14.6 2°54.068 315.1 13.8 307 9.4
2005-05-11 08:38:27 51°14.611 2°54.043 315.1 13.9 306 9.3
2005-05-11 08:38:32 51°14.623 2°54.016 314.2 13.9 305 9.4
2005-05-11 08:38:37 51°14.634 2°53.994 313.6 13.9 305 9.3
2005-05-11 08:38:42 51°14.645 2°53.968 313.8 13.8 305 9.3
2005-05-11 08:38:47 51°14.655 2°53.943 312.8 13.8 305 9.5
2005-05-11 08:38:52 51°14.667 2°53.916 312.5 13.8 304 9.3
2005-05-11 08:38:56 51°14.676 2°53.895 312.4 13.9 305 9.4
2005-05-11 08:39:02 51°14.688 2°53.868 312.6 13.8 305 9.1
2005-05-11 08:39:07 51°14.699 2°53.843 312.7 13.8 305 9.1
2005-05-11 08:39:12 51°14.71 2°53.818 312.9 13.8 304 9
2005-05-11 08:39:17 51°14.72 2°53.793 312.6 13.8 304 8.8
2005-05-11 08:39:22 51°14.732 2°53.766 312.2 13.6 304 8.8
2005-05-11 08:39:27 51°14.741 2°53.743 312.5 13.6 304 8.6
2005-05-11 08:39:31 51°14.749 2°53.723 312.4 13.5 303 8.6
2005-05-11 08:39:37 51°14.763 2°53.69 312.5 13.5 303 8.7
2005-05-11 08:39:42 51°14.773 2°53.664 312.1 13.5 303 8.8
2005-05-11 08:39:47 51°14.782 2°53.642 312 13.5 303 8.7
2005-05-11 08:39:52 51°14.794 2°53.613 312.2 13.8 302 8.9
2005-05-11 08:39:56 51°14.802 2°53.593 312 13.8 302 8.9
2005-05-11 08:40:02 51°14.814 2°53.564 312.3 13.6 304 8.8
2005-05-11 08:40:07 51°14.823 2°53.543 312.8 12.6 304 8.8
2005-05-11 08:40:12 51°14.832 2°53.521 313.1 12.4 304 9.1
2005-05-11 08:40:17 51°14.842 2°53.499 313.6 12.2 304 9.1
2005-05-11 08:40:22 51°14.851 2°53.477 314.7 11.6 304 9.1
2005-05-11 08:40:27 51°14.858 2°53.458 315 11.6 304 9.2
2005-05-11 08:40:32 51°14.865 2°53.435 313 10.6 298 9.3
2005-05-11 08:40:37 51°14.871 2°53.416 309.6 10.3 295 9.3
2005-05-11 08:40:42 51°14.876 2°53.394 306.2 10.1 292 9.4
2005-05-11 08:40:47 51°14.88 2°53.373 303.5 10 291 9.4
2005-05-11 08:40:52 51°14.884 2°53.353 301.9 9.9 290 9.4
2005-05-11 08:40:57 51°14.888 2°53.336 300.5 9.5 288 9.5
2005-05-11 08:41:01 51°14.891 2°53.318 299.3 9.3 287 9.5
2005-05-11 08:41:07 51°14.895 2°53.297 299.2 9.2 287 9.4
2005-05-11 08:41:12 51°14.899 2°53.276 299 9.2 287 9.4
2005-05-11 08:41:16 51°14.902 2°53.261 299 8.8 287 9.5
2005-05-11 08:41:22 51°14.906 2°53.241 299.5 8.8 287 9.5
2005-05-11 08:41:27 51°14.909 2°53.223 299.3 8.8 286 9.5
2005-05-11 08:41:32 51°14.913 2°53.202 299.2 8.7 286 9.4
2005-05-11 08:41:37 51°14.916 2°53.186 298.9 8.7 286 9.5
2005-05-11 08:41:42 51°14.919 2°53.168 299.1 8.6 287 9.4
2005-05-11 08:41:47 51°14.923 2°53.151 299.5 8.5 287 9.5
2005-05-11 08:41:52 51°14.926 2°53.133 299.9 8.4 287 9.4
2005-05-11 08:41:57 51°14.929 2°53.115 300.4 8.3 287 9.5
2005-05-11 08:42:02 51°14.933 2°53.096 300.5 8.2 287 9.5
2005-05-11 08:42:07 51°14.936 2°53.08 300.5 8.2 287 9.3
2005-05-11 08:42:11 51°14.939 2°53.065 301.4 8.2 288 9.4
2005-05-11 08:42:16 51°14.942 2°53.047 301.9 8.1 287 9.5
2005-05-11 08:42:22 51°14.946 2°53.026 300 8.1 285 9.4
2005-05-11 08:42:27 51°14.947 2°53.01 296.9 8.2 281 9.4
2005-05-11 08:42:32 51°14.949 2°52.992 293.5 8.3 279 9.4
2005-05-11 08:42:36 51°14.949 2°52.975 290.3 8.4 276 9.4
2005-05-11 08:42:42 51°14.949 2°52.953 287.2 8.4 276 9.5
2005-05-11 08:42:47 51°14.949 2°52.936 283.6 8.4 270 9.5
2005-05-11 08:42:52 51°14.948 2°52.916 279.8 8.4 269 9.5
2005-05-11 08:42:56 51°14.947 2°52.901 276.4 8.4 269 9.6
2005-05-11 08:43:02 51°14.945 2°52.88 273.7 8.4 264 9.4
2005-05-11 08:43:07 51°14.943 2°52.862 271.5 8.6 262 9.5
2005-05-11 08:43:11 51°14.941 2°52.847 268.9 8.6 260 9.5
2005-05-11 08:43:16 51°14.939 2°52.826 267.2 8.6 260 9.5
2005-05-11 08:43:22 51°14.936 2°52.805 265.8 8.7 257 9.5
2005-05-11 08:43:27 51°14.933 2°52.786 265.8 8.7 258 9.5
2005-05-11 08:43:32 51°14.93 2°52.766 265 8.7 257 9.7
2005-05-11 08:43:36 51°14.928 2°52.75 264.9 8.7 257 9.4
2005-05-11 08:43:42 51°14.925 2°52.73 265.6 8.7 257 9.3
2005-05-11 08:43:47 51°14.922 2°52.71 266.4 8.7 259 9.2
2005-05-11 08:43:52 51°14.92 2°52.689 267 8.7 259 9.2
2005-05-11 08:43:56 51°14.918 2°52.674 267.9 8.8 260 9.1
2005-05-11 08:44:02 51°14.916 2°52.651 269 8.7 259 9
2005-05-11 08:44:07 51°14.914 2°52.635 269.7 8.9 259 9.1
2005-05-11 08:44:12 51°14.912 2°52.615 270 8.7 260 9
2005-05-11 08:44:16 51°14.91 2°52.598 270.4 8.8 260 9.1
2005-05-11 08:44:22 51°14.908 2°52.577 271.1 8.8 261 9
2005-05-11 08:44:27 51°14.907 2°52.557 271.2 8.8 261 9
2005-05-11 08:44:32 51°14.904 2°52.536 270.9 8.9 260 9
2005-05-11 08:44:36 51°14.903 2°52.521 271.4 8.9 260 9
2005-05-11 08:44:43 51°14.9 2°52.495 271.5 8.8 262 9
2005-05-11 08:44:47 51°14.899 2°52.48 271.8 8.9 260 9.1
2005-05-11 08:44:52 51°14.897 2°52.459 272 8.9 261 9
2005-05-11 08:44:56 51°14.895 2°52.443 271.7 8.9 261 9
2005-05-11 08:45:02 51°14.893 2°52.422 271.5 8.9 261 9
2005-05-11 08:45:07 51°14.892 2°52.403 271.4 8.9 261 9.1
2005-05-11 08:45:12 51°14.89 2°52.381 271.4 8.9 261 9.1
2005-05-11 08:45:16 51°14.888 2°52.365 271.4 9 261 9.2
2005-05-11 08:45:22 51°14.886 2°52.344 271.4 9 261 9.2
2005-05-11 08:45:27 51°14.884 2°52.325 271.4 9 261 9.1
2005-05-11 08:45:32 51°14.883 2°52.303 271.4 9 262 9.1
2005-05-11 08:45:36 51°14.881 2°52.288 271.3 9 261 9.1
2005-05-11 08:45:40 51°14.88 2°52.272 271.3 9 264 9.1
2005-05-11 08:45:47 51°14.877 2°52.246 271.3 9 259 9.1
2005-05-11 08:45:52 51°14.875 2°52.225 271.1 9 262 9.1
2005-05-11 08:45:56 51°14.873 2°52.209 271.4 9 260 9.1
2005-05-11 08:46:03 51°14.871 2°52.184 270.9 9 261 9.3
2005-05-11 08:46:07 51°14.87 2°52.168 271.2 9 261 9.2
2005-05-11 08:46:11 51°14.868 2°52.152 271.4 9.1 261 9.3
2005-05-11 08:46:16 51°14.866 2°52.13 271.6 9 260 9.3
2005-05-11 08:46:22 51°14.864 2°52.107 271.7 9 261 9.3
2005-05-11 08:46:27 51°14.862 2°52.089 271.5 9 261 9.3
2005-05-11 08:46:32 51°14.86 2°52.068 271.4 9 261 9.3
2005-05-11 08:46:36 51°14.858 2°52.052 271.1 9.1 260 9.3
2005-05-11 08:46:42 51°14.856 2°52.028 270.8 9.1 259 9.3
2005-05-11 08:46:47 51°14.854 2°52.01 271.2 9.1 259 9.4
2005-05-11 08:46:52 51°14.852 2°51.991 271.3 9.1 260 9.3
2005-05-11 08:46:57 51°14.849 2°51.969 270.9 9.1 261 9.3
2005-05-11 08:47:02 51°14.848 2°51.951 270.9 9.1 259 9.3
2005-05-11 08:47:07 51°14.846 2°51.93 270.7 9.5 260 9.5
2005-05-11 08:47:12 51°14.843 2°51.906 271.2 10 261 9.4
2005-05-11 08:47:17 51°14.841 2°51.885 271 10.3 262 9.3
2005-05-11 08:47:22 51°14.839 2°51.86 270.7 10.3 262 9.3
2005-05-11 08:47:27 51°14.837 2°51.835 270.7 10.3 262 9.4
2005-05-11 08:47:32 51°14.834 2°51.806 270.5 11.7 262 9.4
2005-05-11 08:47:37 51°14.832 2°51.782 270.4 12 262 9.5
2005-05-11 08:47:42 51°14.829 2°51.754 270.5 12.5 262 9.4
2005-05-11 08:47:47 51°14.827 2°51.727 270.2 12.7 262 9.5
2005-05-11 08:47:51 51°14.825 2°51.701 270 13 262 9.4
2005-05-11 08:47:57 51°14.822 2°51.669 270 13 262 9.5
2005-05-11 08:48:02 51°14.819 2°51.637 270.3 13.3 262 9.6
2005-05-11 08:48:07 51°14.817 2°51.61 270.8 13.3 262 9.5
2005-05-11 08:48:12 51°14.813 2°51.581 270.3 13.3 262 9.4
2005-05-11 08:48:17 51°14.809 2°51.552 267.2 13.6 258 9.5
2005-05-11 08:48:22 51°14.803 2°51.52 263.5 13.6 258 9.5
2005-05-11 08:48:27 51°14.798 2°51.494 261.2 13.8 254 9.5
2005-05-11 08:48:32 51°14.791 2°51.462 259.1 13.8 254 9.5
2005-05-11 08:48:37 51°14.785 2°51.436 257.3 13.8 251 9.6
2005-05-11 08:48:42 51°14.778 2°51.405 255.8 13.9 249 9.6
2005-05-11 08:48:47 51°14.771 2°51.375 255 13.9 249 9.7
2005-05-11 08:48:52 51°14.765 2°51.349 254.6 14 248 9.7
2005-05-11 08:48:57 51°14.758 2°51.321 254.6 14 250 9.6
2005-05-11 08:49:02 51°14.75 2°51.288 254.8 14 250 9.6
2005-05-11 08:49:07 51°14.744 2°51.263 254.5 14 250 9.7
2005-05-11 08:49:12 51°14.737 2°51.231 254.3 14 250 9.7
2005-05-11 08:49:17 51°14.73 2°51.205 254.6 14 250 9.7
2005-05-11 08:49:22 51°14.723 2°51.173 254.7 14 249 9.8
2005-05-11 08:49:27 51°14.716 2°51.144 254.8 13.9 249 9.8
2005-05-11 08:49:32 51°14.708 2°51.116 253.8 14 248 9.8
2005-05-11 08:49:37 51°14.7 2°51.088 252.7 14 246 9.7
2005-05-11 08:49:42 51°14.692 2°51.06 251 13.9 246 9.7
2005-05-11 08:49:47 51°14.684 2°51.035 250.1 13.9 245 9.6
2005-05-11 08:49:52 51°14.675 2°51.004 248.6 14 244 9.6
2005-05-11 08:49:57 51°14.666 2°50.981 248.4 13.9 244 9.7
2005-05-11 08:50:02 51°14.656 2°50.95 246.3 13.9 243 9.6
2005-05-11 08:50:07 51°14.647 2°50.927 245.9 13.9 243 9.5
2005-05-11 08:50:12 51°14.638 2°50.899 245.2 13.9 243 9.5
2005-05-11 08:50:16 51°14.63 2°50.875 245.1 13.9 243 9.6
2005-05-11 08:50:22 51°14.618 2°50.843 245.6 13.9 239 9.6
2005-05-11 08:50:27 51°14.61 2°50.819 244.9 13.9 240 9.6
2005-05-11 08:50:32 51°14.599 2°50.789 245.1 14 241 9.6
2005-05-11 08:50:36 51°14.592 2°50.767 245.1 14 242 9.6
2005-05-11 08:50:42 51°14.581 2°50.735 245.5 14 241 9.5
2005-05-11 08:50:47 51°14.572 2°50.71 245.6 14 241 9.6
2005-05-11 08:50:51 51°14.565 2°50.688 246 14.1 241 9.6
2005-05-11 08:50:56 51°14.556 2°50.658 245.9 14.1 241 9.6
2005-05-11 08:51:02 51°14.545 2°50.627 247.2 13.5 243 9.6
2005-05-11 08:51:07 51°14.537 2°50.604 246.8 13.5 243 9.5
2005-05-11 08:51:11 51°14.53 2°50.58 246.7 13.2 243 9.6
2005-05-11 08:51:16 51°14.521 2°50.555 247.3 13.2 243 9.6
2005-05-11 08:51:22 51°14.513 2°50.528 247.5 12.7 245 9.5
2005-05-11 08:51:27 51°14.504 2°50.502 246.7 12.7 245 9.6
2005-05-11 08:51:32 51°14.497 2°50.478 246.9 12.7 245 9.6
2005-05-11 08:51:36 51°14.489 2°50.456 246.9 12.6 241 9.6
2005-05-11 08:51:42 51°14.48 2°50.426 246.4 12.6 241 9.6
2005-05-11 08:51:47 51°14.472 2°50.405 246.8 12.5 241 9.6
2005-05-11 08:51:52 51°14.463 2°50.378 246.1 12.5 242 9.5
2005-05-11 08:51:56 51°14.457 2°50.358 246 12.4 242 9.5
2005-05-11 08:52:02 51°14.448 2°50.331 245.9 12.4 242 9.5
2005-05-11 08:52:07 51°14.44 2°50.307 246.6 12.4 242 9.5
2005-05-11 08:52:12 51°14.431 2°50.281 246.8 12.3 243 9.5
2005-05-11 08:52:17 51°14.423 2°50.257 246.6 12.3 242 9.5
2005-05-11 08:52:22 51°14.416 2°50.235 247.1 12.3 243 9.5
2005-05-11 08:52:27 51°14.407 2°50.209 246.6 12.3 243 9.5
2005-05-11 08:52:32 51°14.399 2°50.185 247.2 12.3 243 9.5
2005-05-11 08:52:36 51°14.393 2°50.165 247 12.3 242 9.5
2005-05-11 08:52:42 51°14.384 2°50.137 247.6 12.2 243 9.5
2005-05-11 08:52:47 51°14.377 2°50.115 246.9 12.2 243 9.4
2005-05-11 08:52:51 51°14.37 2°50.094 247.2 12.2 243 9.4
2005-05-11 08:52:56 51°14.362 2°50.07 247.1 12.3 242 9.4
2005-05-11 08:53:02 51°14.352 2°50.041 246.6 12.3 243 9.5
2005-05-11 08:53:07 51°14.345 2°50.019 247.4 12.3 243 9.4
2005-05-11 08:53:10 51°14.339 2°50.003 246.2 12.4 240 9.5
2005-05-11 08:53:17 51°14.328 2°49.972 247.8 12.1 245 9.4
2005-05-11 08:53:22 51°14.321 2°49.944 244.9 12.4 242 9.4
2005-05-11 08:53:27 51°14.312 2°49.924 247.3 12.4 242 9.5
2005-05-11 08:53:32 51°14.304 2°49.897 246.2 12.3 237 9.6
2005-05-11 08:53:37 51°14.297 2°49.876 245.9 12.3 237 9.6
2005-05-11 08:53:42 51°14.288 2°49.849 246.3 12.3 241 9.5
2005-05-11 08:53:47 51°14.281 2°49.828 246.2 12.2 242 9.6
2005-05-11 08:53:52 51°14.272 2°49.802 246.7 12.2 242 9.6
2005-05-11 08:53:57 51°14.264 2°49.78 245.7 12.2 242 9.6
2005-05-11 08:54:02 51°14.255 2°49.754 246.9 12.2 242 9.6
2005-05-11 08:54:06 51°14.249 2°49.735 245.8 12.3 239 9.6
2005-05-11 08:54:12 51°14.239 2°49.707 246.8 12.3 239 9.5
2005-05-11 08:54:16 51°14.233 2°49.688 245.8 12.3 238 9.6
2005-05-11 08:54:22 51°14.224 2°49.662 246.1 12.3 241 9.6
2005-05-11 08:54:27 51°14.216 2°49.638 246.3 12.2 241 9.6
2005-05-11 08:54:32 51°14.207 2°49.612 245.7 12.2 241 9.7
2005-05-11 08:54:37 51°14.199 2°49.59 246.1 12.3 242 9.7
2005-05-11 08:54:42 51°14.191 2°49.566 246 12.2 241 9.7
2005-05-11 08:54:47 51°14.183 2°49.542 246.4 12.2 242 9.7
2005-05-11 08:54:52 51°14.174 2°49.516 246 12.2 242 9.6
2005-05-11 08:54:57 51°14.168 2°49.495 246.6 12.2 243 9.6
2005-05-11 08:55:02 51°14.158 2°49.469 246.7 12.1 243 9.5
2005-05-11 08:55:07 51°14.152 2°49.447 246.2 12.2 243 9.5
2005-05-11 08:55:12 51°14.144 2°49.424 247.6 12.2 244 9.5
2005-05-11 08:55:16 51°14.137 2°49.402 246.4 12.2 241 9.6
2005-05-11 08:55:22 51°14.127 2°49.374 247.3 12.2 240 9.6
2005-05-11 08:55:27 51°14.121 2°49.353 247.2 12.2 240 9.5
2005-05-11 08:55:32 51°14.112 2°49.326 247.7 12.1 243 9.7
2005-05-11 08:55:36 51°14.105 2°49.307 247.6 12.3 242 9.4
2005-05-11 08:55:42 51°14.097 2°49.279 247.7 12.1 243 9.6
2005-05-11 08:55:47 51°14.089 2°49.257 248.4 12 242 9.5
2005-05-11 08:55:52 51°14.081 2°49.23 247.1 12.3 241 9.5
2005-05-11 08:55:57 51°14.073 2°49.21 248.3 12.2 245 9.5
2005-05-11 08:56:02 51°14.064 2°49.184 246.8 12.2 242 9.5
2005-05-11 08:56:07 51°14.057 2°49.162 246 12.3 241 9.5
2005-05-11 08:56:12 51°14.049 2°49.139 245.6 12.3 241 9.6
2005-05-11 08:56:16 51°14.041 2°49.118 244.6 12.2 239 9.7
2005-05-11 08:56:22 51°14.03 2°49.089 243.9 12.4 240 9.6
2005-05-11 08:56:27 51°14.022 2°49.068 244 12.4 240 9.6
2005-05-11 08:56:32 51°14.013 2°49.043 244 12.4 240 9.6
2005-05-11 08:56:36 51°14.006 2°49.024 243.1 12.3 238 9.8
2005-05-11 08:56:42 51°13.996 2°48.998 243.9 12.3 239 9.6
2005-05-11 08:56:47 51°13.988 2°48.974 243.9 12.3 239 9.7
2005-05-11 08:56:51 51°13.981 2°48.955 244.3 12.4 240 9.6
2005-05-11 08:56:56 51°13.971 2°48.93 243.8 12.4 238 9.5
2005-05-11 08:57:02 51°13.96 2°48.902 244.4 12.4 239 9.6
2005-05-11 08:57:07 51°13.953 2°48.88 243.4 12.4 237 9.6
2005-05-11 08:57:12 51°13.943 2°48.855 243.9 12.4 237 9.6
2005-05-11 08:57:17 51°13.935 2°48.831 243.6 12.3 237 9.7
2005-05-11 08:57:22 51°13.925 2°48.808 243.2 12.4 240 9.7
2005-05-11 08:57:27 51°13.918 2°48.786 243.7 12.4 240 9.7
2005-05-11 08:57:32 51°13.908 2°48.761 243.3 12.4 239 9.7
2005-05-11 08:57:36 51°13.901 2°48.741 243.7 12.4 239 9.7
2005-05-11 08:57:42 51°13.89 2°48.714 243.5 12.4 240 9.6
2005-05-11 08:57:47 51°13.883 2°48.692 243.5 12.5 240 9.7
2005-05-11 08:57:52 51°13.874 2°48.669 244.5 12.3 238 9.7
2005-05-11 08:57:56 51°13.866 2°48.648 244.1 12.3 238 9.6
2005-05-11 08:58:02 51°13.855 2°48.619 243.5 12.3 238 9.8
2005-05-11 08:58:07 51°13.847 2°48.598 244 12.3 238 9.7
2005-05-11 08:58:12 51°13.838 2°48.572 243.8 12.4 238 9.9
2005-05-11 08:58:16 51°13.83 2°48.554 244.5 12.4 238 9.8
2005-05-11 08:58:22 51°13.822 2°48.528 243 12 243 9.8
2005-05-11 08:58:27 51°13.813 2°48.507 244.7 11.5 238 9.9
2005-05-11 08:58:31 51°13.808 2°48.49 244.3 11.3 237 9.9
2005-05-11 08:58:37 51°13.801 2°48.466 248.2 11.3 237 9.9
2005-05-11 08:58:40 51°13.797 2°48.453 252.6 9.5 247 9.9
2005-05-11 08:58:47 51°13.793 2°48.428 258.2 8.9 255 10
2005-05-11 08:58:52 51°13.79 2°48.409 263.6 8.6 251 10
2005-05-11 08:58:56 51°13.788 2°48.396 268.3 8.6 251 10
2005-05-11 08:59:02 51°13.786 2°48.377 272.9 7.4 261 9.9
2005-05-11 08:59:07 51°13.786 2°48.363 277 7.4 261 10
2005-05-11 08:59:12 51°13.785 2°48.348 282.5 6.9 266 10
2005-05-11 08:59:17 51°13.785 2°48.333 285.5 6.9 266 10
2005-05-11 08:59:22 51°13.784 2°48.319 288 6.9 266 10.1
2005-05-11 08:59:27 51°13.784 2°48.307 289.8 6.9 266 10
2005-05-11 08:59:32 51°13.783 2°48.293 291.3 5.8 268 10.2
2005-05-11 08:59:36 51°13.783 2°48.284 292.2 5.8 268 10.1
2005-05-11 08:59:41 51°13.783 2°48.273 293.2 5.3 269 10.2
2005-05-11 08:59:47 51°13.783 2°48.261 294.2 5.2 266 10.2
2005-05-11 08:59:52 51°13.782 2°48.249 295.3 5.2 266 10.3
2005-05-11 08:59:56 51°13.782 2°48.241 297.6 5.2 266 10.3
2005-05-11 09:00:02 51°13.782 2°48.231 300.2 3.9 269 10.3
2005-05-11 09:00:07 51°13.782 2°48.224 303.4 4 265 10.2
2005-05-11 09:00:11 51°13.781 2°48.219 306.5 4 265 10.3
2005-05-11 09:00:16 51°13.78 2°48.212 310.7 4 265 10.3
2005-05-11 09:00:20 51°13.78 2°48.207 315.1 2.6 257 10.3
2005-05-11 09:00:27 51°13.778 2°48.201 318.3 2.8 251 10.4
2005-05-11 09:00:31 51°13.777 2°48.196 320.7 2.2 248 10.3
2005-05-11 09:00:37 51°13.774 2°48.191 322.9 2.2 248 10.3
2005-05-11 09:00:42 51°13.772 2°48.186 324.7 2.2 248 10.3
2005-05-11 09:00:47 51°13.77 2°48.183 326.2 2.2 248 10.3
2005-05-11 09:00:51 51°13.768 2°48.179 326.7 2.6 225 10.2
2005-05-11 09:00:56 51°13.765 2°48.175 326.5 2.6 225 10.1
2005-05-11 09:01:02 51°13.763 2°48.17 325.8 2.6 225 10.2
2005-05-11 09:01:07 51°13.761 2°48.166 324 2.6 225 10.1
2005-05-11 09:01:12 51°13.759 2°48.162 323.9 2.5 231 10.2
2005-05-11 09:01:16 51°13.757 2°48.158 322.2 2.5 231 10.1
2005-05-11 09:01:22 51°13.755 2°48.153 321.1 2.5 231 10.1
2005-05-11 09:01:26 51°13.754 2°48.149 319.3 2.6 239 10.2
2005-05-11 09:01:32 51°13.752 2°48.143 317.6 2.6 239 10.3
2005-05-11 09:01:37 51°13.75 2°48.137 316.7 2.6 239 10.2
2005-05-11 09:01:42 51°13.749 2°48.131 315.9 2.8 245 10.2
2005-05-11 09:01:47 51°13.748 2°48.125 315 2.7 254 10.2
2005-05-11 09:01:52 51°13.748 2°48.117 315.6 2.7 254 10.3
2005-05-11 09:01:57 51°13.748 2°48.11 317.1 3.3 271 10.3
2005-05-11 09:02:02 51°13.749 2°48.102 320 3.3 271 10.3
2005-05-11 09:02:07 51°13.75 2°48.095 323 3.3 271 10.3
2005-05-11 09:02:12 51°13.753 2°48.086 326.7 3.7 287 10.2
2005-05-11 09:02:16 51°13.755 2°48.08 331.1 3.7 287 10.2
2005-05-11 09:02:22 51°13.758 2°48.072 336.9 3.7 287 10.3
2005-05-11 09:02:27 51°13.761 2°48.068 344.7 3.6 308 10.3
2005-05-11 09:02:31 51°13.764 2°48.064 350.2 3.2 314 10.3
2005-05-11 09:02:36 51°13.767 2°48.06 356.3 3 314 10.3
2005-05-11 09:02:42 51°13.769 2°48.054 359.6 2.6 316 10.3
2005-05-11 09:02:47 51°13.77 2°48.051 1.4 2.6 316 10.4
2005-05-11 09:02:51 51°13.771 2°48.048 3 2.1 304 10.3
2005-05-11 09:02:56 51°13.772 2°48.044 5.5 2.1 304 10.3
2005-05-11 09:03:02 51°13.773 2°48.04 8.2 1.6 276 10.3
2005-05-11 09:03:07 51°13.773 2°48.037 10.6 1.5 277 10.2
2005-05-11 09:03:12 51°13.773 2°48.034 12.5 1.5 274 10.3
2005-05-11 09:03:16 51°13.773 2°48.031 14 1.5 275 10.3
2005-05-11 09:03:22 51°13.773 2°48.027 14.8 1.4 271 10.3
2005-05-11 09:03:27 51°13.773 2°48.024 15.9 1.4 271 10.2
2005-05-11 09:03:31 51°13.773 2°48.021 16.7 1.4 266 10.2
2005-05-11 09:03:37 51°13.772 2°48.018 17.4 1.5 264 10.3
2005-05-11 09:03:41 51°13.772 2°48.015 18 1.4 264 10.2
2005-05-11 09:03:47 51°13.772 2°48.012 18.1 1.4 260 10.3
2005-05-11 09:03:51 51°13.772 2°48.01 18.5 1.3 259 10.3
2005-05-11 09:03:56 51°13.772 2°48.006 18.8 1.4 258 10.3
2005-05-11 09:04:02 51°13.771 2°48.003 19.4 1.5 262 10.3
2005-05-11 09:04:07 51°13.771 2°48 19.9 1.4 256 10.3
2005-05-11 09:04:12 51°13.77 2°47.997 20.3 1.5 259 10.3
2005-05-11 09:04:18 51°13.77 2°47.994 20.8 1.4 254 10.3
2005-05-11 09:04:22 51°13.769 2°47.991 20.8 1.4 258 10.4
2005-05-11 09:04:27 51°13.769 2°47.988 21.4 1.3 250 10.4
2005-05-11 09:04:31 51°13.768 2°47.986 22.1 1.4 255 10.2
2005-05-11 09:04:36 51°13.768 2°47.983 22.5 1.4 254 10.3
2005-05-11 09:04:42 51°13.767 2°47.98 23.3 1.4 254 10.3
2005-05-11 09:04:47 51°13.767 2°47.977 23.8 1.3 247 10.3
2005-05-11 09:04:51 51°13.766 2°47.975 24.7 1.3 247 10.3
2005-05-11 09:04:56 51°13.765 2°47.972 25.5 1.4 249 10.4
2005-05-11 09:05:02 51°13.764 2°47.969 26.1 1.3 244 10.2
2005-05-11 09:05:07 51°13.763 2°47.966 26.8 1.3 246 10.3
2005-05-11 09:05:11 51°13.763 2°47.964 27.7 1.3 246 10.4
2005-05-11 09:05:16 51°13.762 2°47.961 28.5 1.2 246 10.4
2005-05-11 09:05:22 51°13.761 2°47.958 29.7 1.2 246 10.3
2005-05-11 09:05:27 51°13.76 2°47.955 30.1 1.2 236 10.3
2005-05-11 09:05:32 51°13.759 2°47.953 31.2 1.3 244 10.5
2005-05-11 09:05:36 51°13.759 2°47.95 32 1.3 239 10.4
2005-05-11 09:05:42 51°13.758 2°47.947 32.7 1.3 239 10.2
2005-05-11 09:05:47 51°13.757 2°47.945 33.8 1.3 243 10.3
2005-05-11 09:05:52 51°13.756 2°47.943 34.9 1.3 235 10.2
2005-05-11 09:05:57 51°13.755 2°47.94 35.6 1.3 235 10.3
2005-05-11 09:06:02 51°13.754 2°47.938 36.8 1.3 235 10.4
2005-05-11 09:06:07 51°13.754 2°47.935 37.3 1.3 239 10.3
2005-05-11 09:06:12 51°13.752 2°47.932 38.1 1.3 228 10.4
2005-05-11 09:06:16 51°13.751 2°47.931 39.4 1.6 251 10.3
2005-05-11 09:06:22 51°13.75 2°47.928 39.1 1.4 242 10
2005-05-11 09:06:26 51°13.75 2°47.926 40.4 1.3 231 10.2
2005-05-11 09:06:32 51°13.748 2°47.923 41.3 1.3 236 10.2
2005-05-11 09:06:36 51°13.747 2°47.921 41.8 1.3 236 10.2
2005-05-11 09:06:42 51°13.746 2°47.918 42.7 1.3 236 10.5
2005-05-11 09:06:47 51°13.745 2°47.916 43.5 1.3 236 10.4
2005-05-11 09:06:51 51°13.744 2°47.914 44.2 1.4 232 10.3
2005-05-11 09:06:56 51°13.743 2°47.912 45.1 1.4 232 10.3
2005-05-11 09:07:02 51°13.741 2°47.909 45.9 1.4 232 10.4
2005-05-11 09:07:07 51°13.74 2°47.907 46.8 1.4 232 10.4
2005-05-11 09:07:12 51°13.739 2°47.905 47.9 1.4 230 10.1
2005-05-11 09:07:16 51°13.738 2°47.903 48.7 1.4 230 10.3
2005-05-11 09:07:22 51°13.736 2°47.901 49.9 1.3 219 10.3
2005-05-11 09:07:27 51°13.735 2°47.899 50.4 1.3 230 10.3
2005-05-11 09:07:32 51°13.734 2°47.897 51.4 1.3 232 10.4
2005-05-11 09:07:37 51°13.733 2°47.895 52.7 1.3 224 10.4
2005-05-11 09:07:42 51°13.731 2°47.893 53.7 1.3 227 10.4
2005-05-11 09:07:47 51°13.73 2°47.891 55.1 1.3 233 10.4
2005-05-11 09:07:51 51°13.728 2°47.889 56 1.5 224 10.3
2005-05-11 09:07:56 51°13.727 2°47.887 57.3 1.5 224 10.2
2005-05-11 09:08:02 51°13.725 2°47.885 57.7 1.4 224 10.2
2005-05-11 09:08:07 51°13.724 2°47.883 58.1 1.4 224 10.3
2005-05-11 09:08:12 51°13.722 2°47.88 58.3 1.4 224 10.2
2005-05-11 09:08:17 51°13.721 2°47.879 59.5 1.4 224 10.2
2005-05-11 09:08:22 51°13.719 2°47.877 60.7 1.4 222 10.3
2005-05-11 09:08:27 51°13.718 2°47.874 61.2 1.5 217 10.3
2005-05-11 09:08:32 51°13.716 2°47.873 61.9 1.4 218 10.2
2005-05-11 09:08:37 51°13.715 2°47.871 62.6 1.4 218 10.5
2005-05-11 09:08:42 51°13.713 2°47.869 63 1.5 217 10.5
2005-05-11 09:08:47 51°13.711 2°47.867 63.2 1.5 214 10.5
2005-05-11 09:08:52 51°13.709 2°47.865 64.1 1.5 216 10.3
2005-05-11 09:08:56 51°13.708 2°47.863 64.7 1.4 219 10.4
2005-05-11 09:09:02 51°13.706 2°47.861 65.4 1.5 214 10.5
2005-05-11 09:09:07 51°13.704 2°47.86 66 1.5 214 10.3
2005-05-11 09:09:11 51°13.703 2°47.858 66.1 1.4 223 10.4
2005-05-11 09:09:17 51°13.701 2°47.856 66.8 1.6 212 10.3
2005-05-11 09:09:22 51°13.699 2°47.853 67.2 1.5 215 10.4
2005-05-11 09:09:27 51°13.697 2°47.852 67.6 1.5 215 10.4
2005-05-11 09:09:32 51°13.696 2°47.85 68 1.6 208 10.5
2005-05-11 09:09:36 51°13.694 2°47.848 68.7 1.6 208 10.5
2005-05-11 09:09:42 51°13.692 2°47.846 68.4 1.4 223 10.3
2005-05-11 09:09:47 51°13.69 2°47.845 69 1.4 221 10.4
2005-05-11 09:09:52 51°13.689 2°47.843 69.3 1.4 221 10.4
2005-05-11 09:09:57 51°13.687 2°47.842 68.8 1.2 210 10.4
2005-05-11 09:10:02 51°13.686 2°47.841 66.9 0.9 212 10.3
2005-05-11 09:10:07 51°13.686 2°47.841 64.1 0.8 194 10.3
2005-05-11 09:10:12 51°13.685 2°47.841 60.5 0.4 205 10.4
2005-05-11 09:10:16 51°13.685 2°47.841 56.6 0.4 205 10.3
2005-05-11 09:10:22 51°13.685 2°47.84 52.6 0.4 205 10.3
2005-05-11 09:10:27 51°13.685 2°47.841 48.9 0.2 340 10.3
2005-05-11 09:10:32 51°13.686 2°47.841 46.2 0.2 26 10.4
2005-05-11 09:10:36 51°13.687 2°47.842 43.4 0.9 29 10.3
2005-05-11 09:10:42 51°13.689 2°47.843 41.2 0.9 29 10.4
2005-05-11 09:10:47 51°13.691 2°47.844 39.8 1.5 24 10.4
2005-05-11 09:10:52 51°13.694 2°47.846 38.1 2 21 10.3
2005-05-11 09:10:56 51°13.696 2°47.847 36.8 2.2 21 10.5
2005-05-11 09:11:02 51°13.701 2°47.85 35.5 2.6 20 10.4
2005-05-11 09:11:07 51°13.704 2°47.851 34.3 2.7 19 10.2
2005-05-11 09:11:11 51°13.708 2°47.853 33.1 3.1 17 10.5
2005-05-11 09:11:16 51°13.712 2°47.855 32.6 3.2 15 10.3
2005-05-11 09:11:22 51°13.717 2°47.857 33 3.2 15 10.4
2005-05-11 09:11:27 51°13.721 2°47.86 33.5 3.1 17 10.4
2005-05-11 09:11:32 51°13.725 2°47.862 34.8 3 16 10.5
2005-05-11 09:11:36 51°13.728 2°47.864 36.4 2.9 23 10.5
2005-05-11 09:11:42 51°13.732 2°47.867 37.8 2.9 23 10.4
2005-05-11 09:11:47 51°13.735 2°47.869 39.9 2.7 28 10.4
2005-05-11 09:11:52 51°13.738 2°47.872 41.7 2.6 34 10.5
2005-05-11 09:11:56 51°13.74 2°47.875 44.5 2.6 34 10.5
2005-05-11 09:12:02 51°13.743 2°47.879 46.5 2.6 34 10.4
2005-05-11 09:12:07 51°13.746 2°47.883 48.4 2.6 43 10.3
2005-05-11 09:12:12 51°13.748 2°47.888 50.5 2.7 47 10.2
2005-05-11 09:12:16 51°13.75 2°47.892 52.6 2.7 49 10.4
2005-05-11 09:12:22 51°13.753 2°47.898 53.6 2.8 51 10.4
2005-05-11 09:12:27 51°13.756 2°47.903 54.5 2.8 53 10.4
2005-05-11 09:12:32 51°13.758 2°47.909 55 2.9 53 10.4
2005-05-11 09:12:36 51°13.76 2°47.913 55.5 2.9 54 10.5
2005-05-11 09:12:42 51°13.763 2°47.918 55.1 2.9 54 10.5
2005-05-11 09:12:47 51°13.765 2°47.923 54.9 2.9 54 10.5
2005-05-11 09:12:52 51°13.768 2°47.929 54.7 2.8 45 10.5
2005-05-11 09:12:57 51°13.77 2°47.934 54.1 2.8 45 10.5
2005-05-11 09:13:02 51°13.772 2°47.939 54.5 2.7 51 10.3
2005-05-11 09:13:07 51°13.775 2°47.943 54.3 2.8 52 10.4
2005-05-11 09:13:12 51°13.777 2°47.948 53.7 2.8 48 10.5
2005-05-11 09:13:16 51°13.779 2°47.951 53 2.7 50 10.5
2005-05-11 09:13:22 51°13.782 2°47.956 52.6 2.7 48 10.5
2005-05-11 09:13:27 51°13.785 2°47.961 52.4 2.7 50 10.5
2005-05-11 09:13:32 51°13.787 2°47.965 52.2 2.7 48 10.5
2005-05-11 09:13:37 51°13.79 2°47.97 52.2 2.7 48 10.5
2005-05-11 09:13:42 51°13.793 2°47.975 52.4 2.6 46 10.3
2005-05-11 09:13:47 51°13.795 2°47.978 52.8 2.6 46 10.5
2005-05-11 09:13:52 51°13.798 2°47.983 52.9 2.6 46 10.4
2005-05-11 09:13:56 51°13.8 2°47.987 53 2.6 46 10.3
2005-05-11 09:14:02 51°13.803 2°47.992 52.5 2.7 44 10.5
2005-05-11 09:14:07 51°13.805 2°47.996 52.5 2.7 50 10.4
2005-05-11 09:14:11 51°13.807 2°47.999 52.6 2.7 47 10.4
2005-05-11 09:14:17 51°13.81 2°48.005 52.8 2.7 47 10.3
2005-05-11 09:14:22 51°13.812 2°48.01 53.9 2.6 49 10.5
2005-05-11 09:14:27 51°13.814 2°48.014 54.1 2.7 55 10.4
2005-05-11 09:14:32 51°13.817 2°48.019 54.4 2.7 51 10.5
2005-05-11 09:14:37 51°13.818 2°48.024 55.2 2.7 51 10.5
2005-05-11 09:14:42 51°13.821 2°48.029 56.1 2.6 54 10.5
2005-05-11 09:14:47 51°13.823 2°48.033 56.5 2.5 56 10.5
2005-05-11 09:14:51 51°13.824 2°48.036 57.1 2.5 53 10.4
2005-05-11 09:14:57 51°13.826 2°48.043 57.5 2.6 61 10.4
2005-05-11 09:15:02 51°13.828 2°48.048 58 2.6 61 10.5
2005-05-11 09:15:07 51°13.83 2°48.054 58 2.6 61 10.4
2005-05-11 09:15:12 51°13.832 2°48.058 58.4 2.6 61 10.5
2005-05-11 09:15:18 51°13.834 2°48.064 58.7 2.6 61 10.6
2005-05-11 09:15:22 51°13.836 2°48.068 58.6 2.5 56 10.6
2005-05-11 09:15:27 51°13.838 2°48.072 58.4 2.6 63 10.7
2005-05-11 09:15:32 51°13.839 2°48.078 58 2.6 61 10.7
2005-05-11 09:15:36 51°13.841 2°48.082 58.1 2.6 61 10.6
2005-05-11 09:15:42 51°13.844 2°48.087 57.8 2.6 59 10.6
2005-05-11 09:15:47 51°13.845 2°48.092 57.8 2.5 60 10.6
2005-05-11 09:15:51 51°13.847 2°48.096 57.9 2.5 60 10.5
2005-05-11 09:15:57 51°13.849 2°48.102 58.2 2.6 63 10.6
2005-05-11 09:16:02 51°13.851 2°48.106 58 2.6 63 10.7
2005-05-11 09:16:07 51°13.852 2°48.111 57.9 2.5 56 10.6
2005-05-11 09:16:12 51°13.855 2°48.117 58.2 2.6 63 10.4
2005-05-11 09:16:16 51°13.856 2°48.121 58.4 2.6 60 10.5
2005-05-11 09:16:22 51°13.859 2°48.126 58.4 2.6 55 10.5
2005-05-11 09:16:27 51°13.86 2°48.132 58.7 2.6 55 10.5
2005-05-11 09:16:32 51°13.862 2°48.136 58.7 2.7 53 10.5
2005-05-11 09:16:36 51°13.864 2°48.141 58.3 2.7 53 10.6
2005-05-11 09:16:42 51°13.866 2°48.147 58.3 2.7 60 10.3
2005-05-11 09:16:47 51°13.868 2°48.152 58 2.7 60 10.4
2005-05-11 09:16:52 51°13.87 2°48.157 58.5 2.7 61 10.4
2005-05-11 09:16:56 51°13.872 2°48.161 58.2 2.7 57 10.6
2005-05-11 09:17:02 51°13.874 2°48.167 58.5 2.7 61 10.7
2005-05-11 09:17:07 51°13.876 2°48.172 58.4 2.7 61 10.6
2005-05-11 09:17:12 51°13.878 2°48.177 58.7 2.7 64 10.6
2005-05-11 09:17:16 51°13.879 2°48.181 58.5 2.7 57 10.5
2005-05-11 09:17:22 51°13.881 2°48.187 58.7 2.7 57 10.5
2005-05-11 09:17:26 51°13.883 2°48.191 58.5 2.7 61 10.6
2005-05-11 09:17:32 51°13.885 2°48.197 58.4 2.7 58 10.6
2005-05-11 09:17:37 51°13.887 2°48.201 58 2.7 58 10.6
2005-05-11 09:17:42 51°13.889 2°48.207 58.3 2.6 57 10.6
2005-05-11 09:17:47 51°13.891 2°48.212 58.1 2.6 57 10.6
2005-05-11 09:17:52 51°13.893 2°48.217 58.2 2.7 58 10.6
2005-05-11 09:17:57 51°13.895 2°48.221 58.2 2.6 60 10.6
2005-05-11 09:18:02 51°13.897 2°48.227 58 2.6 60 10.6
2005-05-11 09:18:07 51°13.898 2°48.232 58 2.6 58 10.6
2005-05-11 09:18:11 51°13.899 2°48.236 58.5 2.7 66 10.7
2005-05-11 09:18:16 51°13.901 2°48.24 59.6 2.7 66 10.6
2005-05-11 09:18:22 51°13.902 2°48.246 60.2 2.7 68 10.7
2005-05-11 09:18:27 51°13.904 2°48.252 60.6 2.7 68 10.6
2005-05-11 09:18:32 51°13.905 2°48.257 61.2 2.6 65 10.6
2005-05-11 09:18:37 51°13.907 2°48.262 61.8 2.6 65 10.6
2005-05-11 09:18:42 51°13.908 2°48.268 62.1 2.6 65 10.5
2005-05-11 09:18:47 51°13.91 2°48.273 62.8 2.7 70 10.5
2005-05-11 09:18:51 51°13.911 2°48.277 63.1 2.6 66 10.6
2005-05-11 09:18:56 51°13.912 2°48.283 63.5 2.6 66 10.7
2005-05-11 09:19:02 51°13.914 2°48.29 63.8 2.6 66 10.6
2005-05-11 09:19:07 51°13.915 2°48.294 63.9 2.6 66 10.6
2005-05-11 09:19:12 51°13.917 2°48.3 64 2.7 70 10.7
2005-05-11 09:19:16 51°13.918 2°48.305 63.8 2.7 70 10.6
2005-05-11 09:19:22 51°13.919 2°48.311 63.8 2.7 70 10.8
2005-05-11 09:19:27 51°13.92 2°48.317 63.8 2.6 66 10.6
2005-05-11 09:19:32 51°13.922 2°48.322 64 2.7 70 10.6
2005-05-11 09:19:37 51°13.923 2°48.327 64.3 2.6 67 10.6
2005-05-11 09:19:42 51°13.925 2°48.333 64 2.6 71 10.4
2005-05-11 09:19:47 51°13.926 2°48.338 64 2.7 72 10.5
2005-05-11 09:19:52 51°13.927 2°48.344 64.2 2.7 69 10.4
2005-05-11 09:19:57 51°13.929 2°48.349 64 2.6 71 10.6
2005-05-11 09:20:02 51°13.93 2°48.355 64 2.7 71 10.4
2005-05-11 09:20:07 51°13.931 2°48.36 64.3 2.7 71 10.4
2005-05-11 09:20:12 51°13.933 2°48.366 64 2.7 71 10.5
2005-05-11 09:20:17 51°13.934 2°48.371 64.4 2.7 68 10.5
2005-05-11 09:20:22 51°13.935 2°48.377 63.9 2.7 68 10.5
2005-05-11 09:20:27 51°13.937 2°48.382 64 2.7 66 10.5
2005-05-11 09:20:32 51°13.938 2°48.388 64.2 2.7 70 10.5
2005-05-11 09:20:36 51°13.94 2°48.393 64 2.7 66 10.6
2005-05-11 09:20:42 51°13.941 2°48.399 64 2.7 72 10.7
2005-05-11 09:20:47 51°13.942 2°48.405 64.3 2.7 68 10.5
2005-05-11 09:20:51 51°13.944 2°48.409 64 2.7 66 10.6
2005-05-11 09:20:56 51°13.945 2°48.415 64.1 2.7 66 10.6
2005-05-11 09:21:02 51°13.947 2°48.422 64.4 2.7 70 10.6
2005-05-11 09:21:07 51°13.948 2°48.427 64.1 2.7 68 10.7
2005-05-11 09:21:12 51°13.949 2°48.432 64.1 2.7 72 10.7
2005-05-11 09:21:17 51°13.95 2°48.438 64 2.7 70 10.7
2005-05-11 09:21:22 51°13.952 2°48.444 64.1 2.7 70 10.7
2005-05-11 09:21:27 51°13.953 2°48.449 63.9 2.7 70 10.5
2005-05-11 09:21:32 51°13.955 2°48.455 64.1 2.7 66 10.5
2005-05-11 09:21:37 51°13.956 2°48.46 63.8 2.7 69 10.6
2005-05-11 09:21:42 51°13.958 2°48.466 63.8 2.7 69 10.4
2005-05-11 09:21:47 51°13.959 2°48.472 63.8 2.7 66 10.5
2005-05-11 09:21:51 51°13.96 2°48.475 63.4 2.7 66 10.5
2005-05-11 09:21:56 51°13.961 2°48.481 63 2.6 72 10.6
2005-05-11 09:22:02 51°13.963 2°48.488 63.3 2.6 63 10.4
2005-05-11 09:22:07 51°13.964 2°48.493 63.2 2.6 63 10.4
2005-05-11 09:22:12 51°13.965 2°48.499 63.1 2.6 71 10.5
2005-05-11 09:22:16 51°13.966 2°48.503 63.1 2.6 68 10.4
2005-05-11 09:22:22 51°13.968 2°48.509 63.2 2.6 68 10.4
2005-05-11 09:22:27 51°13.97 2°48.515 62.9 2.7 74 10.5
2005-05-11 09:22:32 51°13.971 2°48.52 62.6 2.7 72 10.6
2005-05-11 09:22:36 51°13.972 2°48.524 62.2 2.5 67 10.5
2005-05-11 09:22:42 51°13.973 2°48.53 63.1 2.5 67 10.5
2005-05-11 09:22:47 51°13.974 2°48.535 63.1 2.6 70 10.5
2005-05-11 09:22:52 51°13.976 2°48.541 63.1 2.5 64 10.5
2005-05-11 09:22:56 51°13.977 2°48.545 63.1 2.5 64 10.4
2005-05-11 09:23:02 51°13.979 2°48.552 63.1 2.5 64 10.4
2005-05-11 09:23:07 51°13.98 2°48.557 63.1 2.6 65 10.5
2005-05-11 09:23:12 51°13.981 2°48.562 63 2.6 65 10.5
2005-05-11 09:23:17 51°13.982 2°48.567 63.2 2.7 70 10.6
2005-05-11 09:23:22 51°13.984 2°48.573 63.2 2.7 63 10.6
2005-05-11 09:23:27 51°13.985 2°48.578 63 2.7 72 10.6
2005-05-11 09:23:32 51°13.987 2°48.584 63 2.7 72 10.6
2005-05-11 09:23:36 51°13.988 2°48.588 63.1 2.6 68 10.5
2005-05-11 09:23:41 51°13.989 2°48.593 63.2 2.6 64 10.4
2005-05-11 09:23:47 51°13.991 2°48.6 63.6 2.6 64 10.6
2005-05-11 09:23:52 51°13.992 2°48.606 63.8 2.6 64 10.5
2005-05-11 09:23:56 51°13.993 2°48.61 63.6 2.6 64 10.5
2005-05-11 09:24:02 51°13.994 2°48.616 63.7 2.6 69 10.4
2005-05-11 09:24:07 51°13.995 2°48.622 64 2.7 72 10.4
2005-05-11 09:24:12 51°13.997 2°48.628 64.1 2.6 71 10.5
2005-05-11 09:24:17 51°13.998 2°48.633 63.8 2.6 67 10.5
2005-05-11 09:24:22 51°14 2°48.638 64.1 2.6 67 10.6
2005-05-11 09:24:27 51°14.001 2°48.644 63.8 2.6 72 10.6
2005-05-11 09:24:32 51°14.002 2°48.649 63.5 2.6 64 10.6
2005-05-11 09:24:36 51°14.003 2°48.653 63.4 2.6 72 10.6
2005-05-11 09:24:42 51°14.005 2°48.66 63.5 2.6 67 10.6
2005-05-11 09:24:47 51°14.006 2°48.665 63.1 2.7 70 10.6
2005-05-11 09:24:52 51°14.007 2°48.671 63.6 2.7 70 10.6
2005-05-11 09:24:57 51°14.008 2°48.675 63.6 2.6 66 10.6
2005-05-11 09:25:02 51°14.01 2°48.681 63.2 2.6 70 10.7
2005-05-11 09:25:07 51°14.011 2°48.687 63.2 2.6 68 10.6
2005-05-11 09:25:11 51°14.012 2°48.691 63.2 2.7 68 10.6
2005-05-11 09:25:17 51°14.014 2°48.697 63.3 2.7 72 10.6
2005-05-11 09:25:22 51°14.015 2°48.703 63.8 2.7 72 10.5
2005-05-11 09:25:27 51°14.017 2°48.708 63.6 2.6 67 10.5
2005-05-11 09:25:31 51°14.018 2°48.712 63.6 2.6 67 10.3
2005-05-11 09:25:37 51°14.019 2°48.719 63.8 2.6 69 10.4
2005-05-11 09:25:42 51°14.021 2°48.725 63.2 2.6 66 10.5
2005-05-11 09:25:47 51°14.022 2°48.73 63 2.6 66 10.5
2005-05-11 09:25:52 51°14.024 2°48.736 63.2 2.7 70 10.6
2005-05-11 09:25:57 51°14.025 2°48.741 63.1 2.7 66 10.6
2005-05-11 09:26:02 51°14.026 2°48.747 63.4 2.7 71 10.7
2005-05-11 09:26:07 51°14.028 2°48.752 63.3 2.7 71 10.6
2005-05-11 09:26:12 51°14.029 2°48.758 63.8 2.7 71 10.5
2005-05-11 09:26:17 51°14.03 2°48.763 64.1 2.7 71 10.6
2005-05-11 09:26:22 51°14.032 2°48.768 64.3 2.7 67 10.7
2005-05-11 09:26:27 51°14.033 2°48.774 64.4 2.8 65 10.7
2005-05-11 09:26:31 51°14.034 2°48.778 64.4 2.7 68 10.5
2005-05-11 09:26:37 51°14.036 2°48.786 64.5 2.7 68 10.6
2005-05-11 09:26:42 51°14.037 2°48.792 64.3 2.6 67 10.7
2005-05-11 09:26:46 51°14.039 2°48.796 64 2.8 71 10.7
2005-05-11 09:26:52 51°14.04 2°48.803 63.8 2.7 66 10.8
2005-05-11 09:26:57 51°14.041 2°48.809 63.8 2.7 66 10.6
2005-05-11 09:27:02 51°14.043 2°48.814 63.8 2.6 65 10.6
2005-05-11 09:27:07 51°14.044 2°48.82 63.6 2.7 69 10.5
2005-05-11 09:27:11 51°14.045 2°48.824 64.2 2.7 69 10.4
2005-05-11 09:27:17 51°14.046 2°48.83 64.3 2.7 69 10.5
2005-05-11 09:27:22 51°14.047 2°48.837 64.2 2.7 69 10.4
2005-05-11 09:27:27 51°14.048 2°48.842 64.9 2.6 75 10.5
2005-05-11 09:27:31 51°14.049 2°48.846 65.1 2.6 75 10.6
2005-05-11 09:27:36 51°14.051 2°48.852 64.7 2.6 75 10.6
2005-05-11 09:27:42 51°14.052 2°48.859 64.5 2.7 71 10.7
2005-05-11 09:27:47 51°14.053 2°48.865 64 2.7 71 10.5
2005-05-11 09:27:52 51°14.055 2°48.87 64.2 2.6 72 10.6
2005-05-11 09:27:56 51°14.055 2°48.874 63.8 2.6 68 10.4
2005-05-11 09:28:02 51°14.057 2°48.881 63.8 2.6 67 10.5
2005-05-11 09:28:07 51°14.058 2°48.887 63.4 2.6 67 10.5
2005-05-11 09:28:12 51°14.06 2°48.89 63.3 2.8 79 10.6
2005-05-11 09:28:16 51°14.061 2°48.896 63.1 2.8 79 10.5
2005-05-11 09:28:23 51°14.062 2°48.903 63 2.8 79 10.5
2005-05-11 09:28:27 51°14.064 2°48.907 62.8 2.8 79 10.5
2005-05-11 09:28:31 51°14.065 2°48.912 62.7 2.7 69 10.6
2005-05-11 09:28:36 51°14.066 2°48.918 62.5 2.7 67 10.7
2005-05-11 09:28:42 51°14.068 2°48.924 62.5 2.7 67 10.7
2005-05-11 09:28:47 51°14.069 2°48.929 62.4 2.7 68 10.7
2005-05-11 09:28:51 51°14.071 2°48.933 62.8 2.7 67 10.6
2005-05-11 09:28:56 51°14.072 2°48.939 62.6 2.7 67 10.5
2005-05-11 09:29:02 51°14.074 2°48.946 62.8 2.6 65 10.5
2005-05-11 09:29:07 51°14.075 2°48.951 62.6 2.7 67 10.5
2005-05-11 09:29:11 51°14.077 2°48.956 62.2 2.7 67 10.6
2005-05-11 09:29:16 51°14.078 2°48.961 62.1 2.8 67 10.6
2005-05-11 09:29:22 51°14.08 2°48.968 62.4 2.8 70 10.6
2005-05-11 09:29:27 51°14.081 2°48.973 62.1 2.8 70 10.5
2005-05-11 09:29:32 51°14.083 2°48.978 62.6 2.7 65 10.5
2005-05-11 09:29:37 51°14.085 2°48.984 62.6 2.7 67 10.5
2005-05-11 09:29:42 51°14.086 2°48.989 62.6 2.8 68 10.6
2005-05-11 09:29:47 51°14.087 2°48.995 62.2 2.7 63 10.5
2005-05-11 09:29:52 51°14.089 2°49.001 61.5 2.7 63 10.3
2005-05-11 09:29:56 51°14.09 2°49.005 62 2.7 64 10.5
2005-05-11 09:30:02 51°14.092 2°49.012 62.4 2.7 68 10.4
2005-05-11 09:30:07 51°14.093 2°49.017 62.6 2.7 68 10.4
2005-05-11 09:30:12 51°14.094 2°49.023 62.7 2.7 68 10.5
2005-05-11 09:30:16 51°14.095 2°49.027 62.5 2.7 65 10.5
2005-05-11 09:30:22 51°14.097 2°49.034 62.3 2.7 66 10.5
2005-05-11 09:30:27 51°14.099 2°49.038 62.3 2.7 68 10.4
2005-05-11 09:30:32 51°14.1 2°49.044 62.4 2.6 64 10.5
2005-05-11 09:30:37 51°14.102 2°49.049 62.4 2.6 64 10.5
2005-05-11 09:30:42 51°14.103 2°49.055 62.4 2.6 64 10.5
2005-05-11 09:30:47 51°14.104 2°49.06 62.4 2.7 65 10.4
2005-05-11 09:30:52 51°14.106 2°49.066 62.9 2.7 65 10.5
2005-05-11 09:30:56 51°14.107 2°49.071 63.4 2.7 65 10.5
2005-05-11 09:31:02 51°14.108 2°49.077 63.3 2.6 69 10.5
2005-05-11 09:31:07 51°14.109 2°49.082 63.3 2.6 66 10.5
2005-05-11 09:31:12 51°14.111 2°49.088 63.1 2.6 68 10.3
2005-05-11 09:31:16 51°14.112 2°49.093 63.4 2.6 73 10.4
2005-05-11 09:31:22 51°14.113 2°49.099 63.7 2.6 73 10.4
2005-05-11 09:31:27 51°14.115 2°49.104 63.5 2.6 74 10.3
2005-05-11 09:31:32 51°14.116 2°49.11 63.4 2.6 74 10.4
2005-05-11 09:31:37 51°14.118 2°49.115 63.8 2.6 74 10.6
2005-05-11 09:31:42 51°14.118 2°49.12 63.5 2.7 75 10.5
2005-05-11 09:31:47 51°14.12 2°49.125 63.7 2.6 70 10.6
2005-05-11 09:31:52 51°14.121 2°49.13 63.3 2.6 67 10.6
2005-05-11 09:31:57 51°14.123 2°49.136 63.4 2.6 69 10.5
2005-05-11 09:32:02 51°14.124 2°49.142 63.7 2.6 67 10.5
2005-05-11 09:32:07 51°14.125 2°49.146 63.5 2.6 72 10.7
2005-05-11 09:32:12 51°14.127 2°49.152 63.4 2.6 66 10.6
2005-05-11 09:32:17 51°14.128 2°49.157 63.7 2.6 69 10.6
2005-05-11 09:32:22 51°14.129 2°49.163 63.8 2.7 68 10.6
2005-05-11 09:32:27 51°14.13 2°49.167 64 2.7 74 10.7
2005-05-11 09:32:32 51°14.132 2°49.174 64.1 2.5 70 10.4
2005-05-11 09:32:36 51°14.133 2°49.178 64.7 2.6 70 10.4
2005-05-11 09:32:42 51°14.134 2°49.185 64.4 2.6 71 10.6
2005-05-11 09:32:47 51°14.136 2°49.189 63.8 2.6 71 10.5
2005-05-11 09:32:52 51°14.137 2°49.195 63.9 2.6 71 10.5
2005-05-11 09:32:57 51°14.138 2°49.2 63.8 2.6 71 10.5
2005-05-11 09:33:02 51°14.14 2°49.206 63.6 2.6 71 10.6
2005-05-11 09:33:07 51°14.141 2°49.211 63.3 2.5 67 10.5
2005-05-11 09:33:12 51°14.142 2°49.217 63.2 2.5 67 10.3
2005-05-11 09:33:16 51°14.144 2°49.221 63.5 2.6 68 10.4
2005-05-11 09:33:22 51°14.145 2°49.227 63.4 2.6 68 10.5
2005-05-11 09:33:27 51°14.147 2°49.232 63.4 2.7 72 10.5
2005-05-11 09:33:32 51°14.148 2°49.239 63.3 2.7 65 10.4
2005-05-11 09:33:36 51°14.15 2°49.243 63.8 2.7 67 10.4
2005-05-11 09:33:42 51°14.151 2°49.249 63.5 2.6 65 10.5
2005-05-11 09:33:47 51°14.153 2°49.255 63.8 2.6 65 10.6
2005-05-11 09:33:52 51°14.154 2°49.261 63.6 2.6 64 10.4
2005-05-11 09:33:57 51°14.155 2°49.265 63.8 2.6 66 10.5
2005-05-11 09:34:02 51°14.157 2°49.271 64.4 2.7 67 10.5
2005-05-11 09:34:07 51°14.157 2°49.277 64.3 2.7 67 10.4
2005-05-11 09:34:12 51°14.159 2°49.282 64.5 2.7 67 10.5
2005-05-11 09:34:16 51°14.16 2°49.287 64.5 2.7 67 10.5
2005-05-11 09:34:22 51°14.162 2°49.293 64.7 2.7 67 10.5
2005-05-11 09:34:27 51°14.163 2°49.298 64.7 2.6 70 10.4
2005-05-11 09:34:32 51°14.164 2°49.305 64.6 2.6 70 10.3
2005-05-11 09:34:36 51°14.165 2°49.309 64.9 2.7 70 10.3
2005-05-11 09:34:42 51°14.167 2°49.316 65.4 2.7 73 10.4
2005-05-11 09:34:47 51°14.168 2°49.322 64.7 2.7 66 10.3
2005-05-11 09:34:52 51°14.169 2°49.327 64.4 2.7 66 10.4
2005-05-11 09:34:56 51°14.17 2°49.332 64.3 2.7 71 10.4
2005-05-11 09:35:02 51°14.172 2°49.339 63.9 2.8 75 10.3
2005-05-11 09:35:07 51°14.173 2°49.344 64.5 2.8 77 10.3
2005-05-11 09:35:12 51°14.175 2°49.35 64.5 2.7 65 10.3
2005-05-11 09:35:17 51°14.176 2°49.355 64.3 2.7 72 10.3
2005-05-11 09:35:22 51°14.177 2°49.361 64.3 2.7 68 10.4
2005-05-11 09:35:27 51°14.178 2°49.366 63.6 2.7 68 10.4
2005-05-11 09:35:32 51°14.18 2°49.372 63.5 2.8 66 10.3
2005-05-11 09:35:36 51°14.182 2°49.377 63.3 2.8 66 10.4
2005-05-11 09:35:42 51°14.183 2°49.383 63.8 2.7 66 10.4
2005-05-11 09:35:47 51°14.184 2°49.389 63.1 2.7 67 10.3
2005-05-11 09:35:52 51°14.186 2°49.394 63.2 2.7 67 10.3
2005-05-11 09:35:57 51°14.188 2°49.4 63.3 2.8 64 10.3
2005-05-11 09:36:02 51°14.189 2°49.406 63.1 2.7 71 10.2
2005-05-11 09:36:07 51°14.19 2°49.411 63.1 2.7 71 10.4
2005-05-11 09:36:12 51°14.192 2°49.417 63.3 2.8 70 10.4
2005-05-11 09:36:16 51°14.193 2°49.422 63.5 2.8 70 10.4
2005-05-11 09:36:22 51°14.195 2°49.428 63.5 2.7 68 10.3
2005-05-11 09:36:27 51°14.196 2°49.433 63.8 2.7 68 10.3
2005-05-11 09:36:31 51°14.197 2°49.438 63.4 2.8 69 10.5
2005-05-11 09:36:37 51°14.199 2°49.444 63.1 2.8 66 10.3
2005-05-11 09:36:42 51°14.201 2°49.45 63.1 2.8 69 10.3
2005-05-11 09:36:47 51°14.202 2°49.456 63 2.8 69 10.3
2005-05-11 09:36:52 51°14.204 2°49.461 62.9 2.8 65 10.4
2005-05-11 09:36:56 51°14.205 2°49.466 62.8 2.8 65 10.3
2005-05-11 09:37:02 51°14.207 2°49.473 62.9 2.8 69 10.3
2005-05-11 09:37:07 51°14.208 2°49.478 62.7 2.8 65 10.3
2005-05-11 09:37:12 51°14.21 2°49.484 63 2.8 67 10.4
2005-05-11 09:37:16 51°14.211 2°49.489 63.1 2.8 65 10.3
2005-05-11 09:37:22 51°14.213 2°49.495 63.1 2.8 61 10.3
2005-05-11 09:37:27 51°14.215 2°49.501 63.6 2.9 73 10.3
2005-05-11 09:37:32 51°14.216 2°49.507 63.5 2.8 65 10.3
2005-05-11 09:37:36 51°14.217 2°49.512 63.6 2.8 70 10.4
2005-05-11 09:37:42 51°14.22 2°49.519 64 2.8 70 10.4
2005-05-11 09:37:47 51°14.221 2°49.524 63.8 2.8 70 10.5
2005-05-11 09:37:52 51°14.223 2°49.53 63.7 2.8 62 10.5
2005-05-11 09:37:57 51°14.224 2°49.536 63.6 2.8 74 10.4
2005-05-11 09:38:02 51°14.225 2°49.541 63.7 2.8 74 10.4
2005-05-11 09:38:07 51°14.227 2°49.548 63.7 2.8 68 10.4
2005-05-11 09:38:12 51°14.228 2°49.553 63.8 2.8 63 10.3
2005-05-11 09:38:17 51°14.229 2°49.559 63.5 2.8 63 10.3
2005-05-11 09:38:22 51°14.231 2°49.565 63.4 2.7 67 10.3
2005-05-11 09:38:27 51°14.232 2°49.57 63.6 2.8 72 10.4
2005-05-11 09:38:32 51°14.234 2°49.576 63.7 2.8 72 10.4
2005-05-11 09:38:36 51°14.235 2°49.58 63.7 2.8 72 10.3
2005-05-11 09:38:42 51°14.237 2°49.587 63.6 2.8 67 10.3
2005-05-11 09:38:47 51°14.238 2°49.593 63.6 2.8 68 10.4
2005-05-11 09:38:52 51°14.24 2°49.599 63.5 2.8 68 10.4
2005-05-11 09:38:56 51°14.241 2°49.603 63.1 2.7 68 10.4
2005-05-11 09:39:02 51°14.243 2°49.609 63.5 2.7 68 10.3
2005-05-11 09:39:07 51°14.244 2°49.615 63.3 2.8 66 10.4
2005-05-11 09:39:12 51°14.246 2°49.621 63.5 2.8 66 10.4
2005-05-11 09:39:17 51°14.247 2°49.626 63.4 2.8 67 10.4
2005-05-11 09:39:22 51°14.249 2°49.632 63.2 2.8 67 10.3
2005-05-11 09:39:27 51°14.25 2°49.638 63.1 2.7 68 10.3
2005-05-11 09:39:32 51°14.252 2°49.643 63.3 2.7 68 10.3
2005-05-11 09:39:36 51°14.253 2°49.648 63.1 2.6 67 10.4
2005-05-11 09:39:42 51°14.255 2°49.654 63 2.6 66 10.4
2005-05-11 09:39:47 51°14.256 2°49.659 63.1 2.5 67 10.3
2005-05-11 09:39:52 51°14.257 2°49.664 62.9 2.5 67 10.3
2005-05-11 09:39:57 51°14.259 2°49.669 63.1 2.5 70 10.2
2005-05-11 09:40:02 51°14.26 2°49.674 63.2 2.5 68 10.4
2005-05-11 09:40:07 51°14.261 2°49.679 63.1 2.4 73 10.4